Ravenna, OH

6:45 PM EST on January 22, 2017 (GMT -0500)
Ravenna

Weather History for KPOV - October, 2012

Change the Weather History Date:

Friday, October 5, 2012

  Actual Average (KCAK) Record (KCAK)
Temperature  
Mean Temperature 57 °F -  
Max Temperature 65 °F 65 °F 89 °F (1922)
Min Temperature 49 °F 45 °F 30 °F (1965)
Degree Days  
Heating Degree Days 8    
Growing Degree Days 7 (Base 50)    
Moisture  
Dew Point 55 °F    
Average Humidity 84    
Maximum Humidity 100    
Minimum Humidity 74    
Precipitation  
Precipitation 0.22 in - - ()
Sea Level Pressure  
Sea Level Pressure 30.04 in    
Wind  
Wind Speed 5 mph (WSW)    
Max Wind Speed 12 mph    
Max Gust Speed 17 mph    
Visibility 9 miles    
Events      
Averages and records for this station are not official NWS values.
T = Trace of Precipitation, MM = Missing Value Source: NWS Daily Summary

Daily Weather History Graph

Daily Weather History Graph

Search for Another Location

Airport or City:

Trip Planner

Search our weather history database for the weather conditions in past years. The results will help you decide how hot, cold, wet, or windy it might be!

Date:

Astronomy

Oct. 05, 2012 Rise Set
Actual Time 7:26 AM EDT 6:59 PM EDT
Civil Twilight 6:58 AM EDT 7:26 PM EDT
Nautical Twilight 6:26 AM EDT 7:58 PM EDT
Astronomical Twilight 5:54 AM EDT 8:30 PM EDT
Moon 10:19 PM EDT (10/5) 12:35 PM EDT (10/5)
Length of Visible Light 12h 28m
Length of Day
11h 33m
Waning Gibbous, 74% of the Moon is Illuminated
Oct 5
Waning Gibbous
Oct 8
Last Quarter
Oct 15
New
Oct 21
First Quarter
Oct 29
Full

Hourly Weather History & Observations

Time (EDT) Temp. Dew Point Humidity Pressure Visibility Wind Dir Wind Speed Gust Speed Precip Events Conditions
12:13 AM 60.1 °F 53.8 °F 80% 30.10 in 10.0 mi SW 3.5 mph - N/A   Clear
12:33 AM 60.4 °F 53.8 °F 79% 30.10 in 10.0 mi SW 4.6 mph - N/A   Clear
12:54 AM 60.8 °F 53.6 °F 77% 30.10 in 10.0 mi WSW 6.9 mph - N/A   Clear
1:13 AM 61.3 °F 53.6 °F 76% 30.10 in 10.0 mi WSW 5.8 mph - N/A   Clear
1:33 AM 61.0 °F 53.4 °F 76% 30.10 in 10.0 mi SW 3.5 mph - N/A   Clear
1:53 AM 60.8 °F 53.4 °F 77% 30.10 in 10.0 mi SW 3.5 mph - N/A   Clear
2:14 AM 60.3 °F 53.4 °F 78% 30.10 in 10.0 mi WSW 4.6 mph - N/A   Clear
2:33 AM 60.3 °F 53.6 °F 79% 30.10 in 10.0 mi SW 4.6 mph - N/A   Scattered Clouds
2:53 AM 60.8 °F 53.6 °F 77% 30.10 in 10.0 mi WSW 4.6 mph - N/A   Mostly Cloudy
3:14 AM 60.8 °F 53.6 °F 77% 30.10 in 10.0 mi SW 4.6 mph - N/A   Overcast
3:33 AM 60.3 °F 53.8 °F 79% 30.09 in 10.0 mi SW 3.5 mph - N/A   Mostly Cloudy
3:53 AM 60.3 °F 54.0 °F 80% 30.08 in 10.0 mi Calm Calm - N/A   Overcast
4:13 AM 60.6 °F 53.8 °F 78% 30.08 in 10.0 mi SW 3.5 mph - N/A   Scattered Clouds
4:33 AM 60.8 °F 54.0 °F 78% 30.08 in 10.0 mi SW 3.5 mph - N/A   Clear
4:54 AM 60.6 °F 54.3 °F 80% 30.08 in 10.0 mi Calm Calm - N/A   Clear
5:14 AM 61.2 °F 54.5 °F 79% 30.09 in 10.0 mi WSW 5.8 mph - N/A   Mostly Cloudy
5:33 AM 61.7 °F 54.5 °F 77% 30.09 in 10.0 mi SW 5.8 mph - N/A   Overcast
5:53 AM 62.6 °F 54.5 °F 75% 30.09 in 10.0 mi SW 4.6 mph - N/A   Overcast
6:14 AM 61.9 °F 54.5 °F 77% 30.09 in 10.0 mi SW 4.6 mph - N/A   Overcast
6:33 AM 61.0 °F 54.5 °F 79% 30.09 in 10.0 mi SW 4.6 mph - N/A   Mostly Cloudy
6:53 AM 60.8 °F 54.5 °F 80% 30.09 in 10.0 mi SW 3.5 mph - N/A   Mostly Cloudy
7:13 AM 60.6 °F 54.5 °F 80% 30.10 in 10.0 mi WSW 3.5 mph - N/A   Overcast
7:33 AM 60.3 °F 54.7 °F 82% 30.10 in 10.0 mi SW 3.5 mph - N/A   Overcast
7:54 AM 60.3 °F 54.7 °F 82% 30.09 in 10.0 mi SW 3.5 mph - N/A   Overcast
8:14 AM 59.9 °F 54.7 °F 83% 30.09 in 10.0 mi Calm Calm - N/A   Scattered Clouds
8:33 AM 60.8 °F 55.2 °F 82% 30.10 in 10.0 mi SW 3.5 mph - N/A   Scattered Clouds
8:53 AM 61.0 °F 55.4 °F 82% 30.10 in 10.0 mi WSW 4.6 mph - N/A   Mostly Cloudy
9:14 AM 61.7 °F 55.6 °F 80% 30.09 in 10.0 mi WSW 4.6 mph - N/A   Mostly Cloudy
9:33 AM 62.4 °F 55.6 °F 78% 30.09 in 10.0 mi WSW 4.6 mph - N/A   Overcast
9:53 AM 62.8 °F 55.9 °F 78% 30.09 in 10.0 mi WSW 8.1 mph - N/A   Mostly Cloudy
10:14 AM 63.3 °F 55.9 °F 77% 30.09 in 10.0 mi West 10.4 mph - N/A   Overcast
10:33 AM 62.6 °F 56.3 °F 80% 30.09 in 10.0 mi WSW 5.8 mph - N/A   Mostly Cloudy
10:53 AM 63.5 °F 56.7 °F 78% 30.08 in 10.0 mi WSW 4.6 mph - N/A   Mostly Cloudy
11:13 AM 64.0 °F 56.5 °F 76% 30.08 in 10.0 mi WSW 6.9 mph - N/A   Overcast
11:33 AM 63.7 °F 56.1 °F 76% 30.08 in 10.0 mi WSW 6.9 mph - N/A   Overcast
11:54 AM 64.6 °F 56.5 °F 75% 30.07 in 10.0 mi WSW 8.1 mph - N/A   Overcast
12:14 PM 64.4 °F 56.5 °F 75% 30.08 in 10.0 mi WSW 5.8 mph - N/A   Overcast
12:33 PM 64.4 °F 56.5 °F 75% 30.07 in 10.0 mi WSW 5.8 mph - N/A   Overcast
12:53 PM 63.9 °F 56.3 °F 76% 30.06 in 10.0 mi SW 3.5 mph - N/A   Overcast
1:14 PM 64.4 °F 56.7 °F 76% 30.05 in 10.0 mi WSW 4.6 mph - N/A   Overcast
1:33 PM 64.8 °F 56.8 °F 75% 30.05 in 10.0 mi WSW 8.1 mph - N/A   Overcast
1:53 PM 65.3 °F 56.7 °F 74% 30.06 in 10.0 mi West 10.4 mph - N/A   Overcast
2:33 PM 63.5 °F 57.2 °F 80% 30.04 in 10.0 mi WNW 5.8 mph - N/A   Overcast
2:54 PM 63.1 °F 56.5 °F 79% 30.03 in 10.0 mi WSW 3.5 mph - N/A   Overcast
3:14 PM 63.5 °F 56.8 °F 79% 30.03 in 10.0 mi West 4.6 mph - N/A   Overcast
3:33 PM 63.0 °F 57.2 °F 81% 30.02 in 10.0 mi WNW 3.5 mph - N/A   Overcast
3:53 PM 62.6 °F 57.2 °F 82% 30.01 in 10.0 mi Calm Calm - N/A   Overcast
4:14 PM 61.7 °F 57.4 °F 86% 30.01 in 10.0 mi NW 4.6 mph - N/A   Overcast
4:33 PM 60.8 °F 57.9 °F 90% 29.99 in 10.0 mi Calm Calm - N/A   Overcast
4:53 PM 61.2 °F 58.3 °F 90% 29.99 in 10.0 mi WNW 3.5 mph - N/A   Overcast
5:14 PM 60.4 °F 58.3 °F 93% 29.98 in 10.0 mi Calm Calm - N/A   Overcast
5:33 PM 60.1 °F 58.3 °F 94% 29.98 in 10.0 mi Calm Calm - N/A   Overcast
5:53 PM 59.9 °F 58.6 °F 96% 29.97 in 10.0 mi NNW 3.5 mph - N/A   Overcast
6:13 PM 59.2 °F 59.4 °F 100% 29.98 in 7.0 mi Calm Calm - N/A   Overcast
6:33 PM 58.8 °F 59.0 °F 100% 29.98 in 5.0 mi WNW 4.6 mph - N/A   Overcast
6:54 PM 58.1 °F 58.1 °F 100% 29.97 in 7.0 mi WNW 3.5 mph - 0.01 in   Overcast
7:14 PM 57.4 °F 57.4 °F 100% 29.97 in 4.0 mi WNW 4.6 mph - N/A   Overcast
7:33 PM 56.3 °F 56.3 °F 100% 29.98 in 4.0 mi WNW 5.8 mph - N/A   Overcast
7:53 PM 55.0 °F 55.2 °F 100% 29.98 in 3.0 mi WNW 8.1 mph - N/A   Overcast
8:14 PM - - N/A% 29.96 in 10.0 mi WNW 5.8 mph - N/A   Overcast
8:33 PM - - N/A% 29.96 in 10.0 mi NW 5.8 mph - N/A   Overcast
8:53 PM 52.2 °F 50.4 °F 94% 29.97 in 10.0 mi NW 9.2 mph - N/A   Overcast
9:14 PM 51.8 °F 50.5 °F 95% 29.97 in 10.0 mi WNW 8.1 mph - N/A   Overcast
9:33 PM 51.3 °F 50.2 °F 96% 29.97 in 10.0 mi WNW 8.1 mph - N/A   Overcast
9:53 PM 51.3 °F 50.0 °F 95% 29.97 in 10.0 mi WNW 8.1 mph - N/A   Overcast
10:14 PM 51.3 °F 50.0 °F 95% 29.97 in 10.0 mi WNW 8.1 mph - N/A   Overcast
10:33 PM 51.1 °F 50.5 °F 98% 29.97 in 10.0 mi West 11.5 mph - N/A   Overcast
10:53 PM 50.4 °F 50.0 °F 99% 29.95 in 7.0 mi WNW 6.9 mph - 0.02 in   Overcast
11:14 PM 50.0 °F 50.2 °F 100% 29.96 in 5.0 mi WNW 8.1 mph - 0.07 in   Overcast
11:33 PM 49.5 °F 49.6 °F 100% 29.96 in 7.0 mi WNW 10.4 mph 17.3 mph 0.12 in   Overcast
11:53 PM 49.3 °F 49.5 °F 100% 29.95 in 7.0 mi West 6.9 mph - 0.19 in   Overcast